sensor_id;sensor_type;location;lat;lon;timestamp;pressure;altitude;pressure_sealevel;temperature;humidity
32109;BME280;18624;50.042;8.436;2023-02-17T00:01:19;100960.78;;;2.96;100.00
32109;BME280;18624;50.042;8.436;2023-02-17T00:03:47;101226.41;;;4.67;100.00
32109;BME280;18624;50.042;8.436;2023-02-17T00:06:14;101200.22;;;4.52;100.00
32109;BME280;18624;50.042;8.436;2023-02-17T00:08:41;101206.81;;;4.54;100.00
32109;BME280;18624;50.042;8.436;2023-02-17T00:11:08;101240.81;;;4.71;100.00
32109;BME280;18624;50.042;8.436;2023-02-17T00:13:34;101121.22;;;4.04;100.00
32109;BME280;18624;50.042;8.436;2023-02-17T00:16:14;101199.16;;;4.60;100.00
32109;BME280;18624;50.042;8.436;2023-02-17T00:18:42;101189.28;;;4.48;100.00
32109;BME280;18624;50.042;8.436;2023-02-17T00:21:17;101203.44;;;4.61;100.00
32109;BME280;18624;50.042;8.436;2023-02-17T00:23:44;101205.88;;;4.70;100.00
32109;BME280;18624;50.042;8.436;2023-02-17T00:26:12;101173.44;;;4.50;100.00
32109;BME280;18624;50.042;8.436;2023-02-17T00:28:39;101220.69;;;4.76;100.00
32109;BME280;18624;50.042;8.436;2023-02-17T00:31:12;101204.06;;;4.77;100.00
32109;BME280;18624;50.042;8.436;2023-02-17T00:33:38;101019.47;;;3.61;100.00
32109;BME280;18624;50.042;8.436;2023-02-17T00:36:07;101205.22;;;4.80;100.00
32109;BME280;18624;50.042;8.436;2023-02-17T00:38:35;101114.06;;;4.19;100.00
32109;BME280;18624;50.042;8.436;2023-02-17T00:41:01;101082.03;;;4.01;100.00
32109;BME280;18624;50.042;8.436;2023-02-17T00:43:29;101200.84;;;4.72;100.00
32109;BME280;18624;50.042;8.436;2023-02-17T00:45:56;100924.50;;;3.00;100.00
32109;BME280;18624;50.042;8.436;2023-02-17T00:48:22;101171.69;;;4.65;100.00
32109;BME280;18624;50.042;8.436;2023-02-17T00:50:49;101172.41;;;4.62;100.00
32109;BME280;18624;50.042;8.436;2023-02-17T00:53:15;100919.81;;;2.97;100.00
32109;BME280;18624;50.042;8.436;2023-02-17T00:55:42;101180.78;;;4.50;100.00
32109;BME280;18624;50.042;8.436;2023-02-17T00:58:08;100944.41;;;3.12;100.00
32109;BME280;18624;50.042;8.436;2023-02-17T01:00:35;100937.06;;;3.12;100.00
32109;BME280;18624;50.042;8.436;2023-02-17T01:03:01;101204.50;;;4.83;100.00
32109;BME280;18624;50.042;8.436;2023-02-17T01:05:28;101194.69;;;4.75;100.00
32109;BME280;18624;50.042;8.436;2023-02-17T01:07:54;101172.88;;;4.68;100.00
32109;BME280;18624;50.042;8.436;2023-02-17T01:10:21;101190.97;;;4.87;100.00
32109;BME280;18624;50.042;8.436;2023-02-17T01:12:47;101176.56;;;4.82;100.00
32109;BME280;18624;50.042;8.436;2023-02-17T01:15:14;101206.47;;;4.86;100.00
32109;BME280;18624;50.042;8.436;2023-02-17T01:17:41;101217.31;;;5.16;100.00
32109;BME280;18624;50.042;8.436;2023-02-17T01:20:07;101057.38;;;4.10;100.00
32109;BME280;18624;50.042;8.436;2023-02-17T01:22:37;101171.25;;;4.93;100.00
32109;BME280;18624;50.042;8.436;2023-02-17T01:25:04;101182.16;;;4.97;100.00
32109;BME280;18624;50.042;8.436;2023-02-17T01:27:30;101135.31;;;4.73;100.00
32109;BME280;18624;50.042;8.436;2023-02-17T01:29:57;101115.00;;;4.64;100.00
32109;BME280;18624;50.042;8.436;2023-02-17T01:32:25;101164.75;;;5.01;100.00
32109;BME280;18624;50.042;8.436;2023-02-17T01:34:53;101027.88;;;4.09;100.00
32109;BME280;18624;50.042;8.436;2023-02-17T01:37:19;101082.59;;;4.44;100.00
32109;BME280;18624;50.042;8.436;2023-02-17T01:39:45;101141.66;;;4.85;100.00
32109;BME280;18624;50.042;8.436;2023-02-17T01:42:16;101189.84;;;5.25;100.00
32109;BME280;18624;50.042;8.436;2023-02-17T01:47:55;101109.56;;;4.64;100.00
32109;BME280;18624;50.042;8.436;2023-02-17T01:50:31;101160.88;;;5.02;100.00
32109;BME280;18624;50.042;8.436;2023-02-17T01:52:58;101130.44;;;4.90;100.00
32109;BME280;18624;50.042;8.436;2023-02-17T01:55:26;101123.84;;;4.87;100.00
32109;BME280;18624;50.042;8.436;2023-02-17T01:57:55;101095.28;;;4.67;100.00
32109;BME280;18624;50.042;8.436;2023-02-17T02:00:23;101110.88;;;4.73;100.00
32109;BME280;18624;50.042;8.436;2023-02-17T02:02:52;101157.53;;;5.16;100.00
32109;BME280;18624;50.042;8.436;2023-02-17T02:05:19;100863.06;;;3.35;100.00
32109;BME280;18624;50.042;8.436;2023-02-17T02:07:47;100825.25;;;3.12;100.00
32109;BME280;18624;50.042;8.436;2023-02-17T02:10:16;101146.75;;;5.23;100.00
32109;BME280;18624;50.042;8.436;2023-02-17T02:12:43;101138.94;;;5.22;100.00
32109;BME280;18624;50.042;8.436;2023-02-17T02:15:13;101139.75;;;5.22;100.00
32109;BME280;18624;50.042;8.436;2023-02-17T02:18:00;101141.31;;;5.23;100.00
32109;BME280;18624;50.042;8.436;2023-02-17T02:23:49;101137.41;;;5.24;100.00
32109;BME280;18624;50.042;8.436;2023-02-17T02:29:44;101066.75;;;4.83;100.00
32109;BME280;18624;50.042;8.436;2023-02-17T02:32:37;101102.38;;;5.16;100.00
32109;BME280;18624;50.042;8.436;2023-02-17T02:35:12;101057.06;;;4.86;100.00
32109;BME280;18624;50.042;8.436;2023-02-17T02:37:51;100761.19;;;2.96;100.00
32109;BME280;18624;50.042;8.436;2023-02-17T02:40:22;101012.22;;;4.62;100.00
32109;BME280;18624;50.042;8.436;2023-02-17T02:42:50;101089.19;;;5.14;100.00
32109;BME280;18624;50.042;8.436;2023-02-17T02:45:17;100858.16;;;3.74;100.00
32109;BME280;18624;50.042;8.436;2023-02-17T02:47:45;101095.59;;;5.40;100.00
32109;BME280;18624;50.042;8.436;2023-02-17T02:52:59;101063.69;;;5.29;100.00
32109;BME280;18624;50.042;8.436;2023-02-17T02:55:47;101105.44;;;5.51;100.00
32109;BME280;18624;50.042;8.436;2023-02-17T03:01:08;101085.88;;;5.87;100.00
32109;BME280;18624;50.042;8.436;2023-02-17T03:03:53;101084.81;;;5.95;100.00
32109;BME280;18624;50.042;8.436;2023-02-17T03:09:04;101087.22;;;6.11;100.00
32109;BME280;18624;50.042;8.436;2023-02-17T03:11:33;101081.41;;;6.16;100.00
32109;BME280;18624;50.042;8.436;2023-02-17T03:14:04;101083.38;;;6.19;100.00
32109;BME280;18624;50.042;8.436;2023-02-17T03:16:32;101053.34;;;6.01;100.00
32109;BME280;18624;50.042;8.436;2023-02-17T03:18:59;100868.13;;;4.89;100.00
32109;BME280;18624;50.042;8.436;2023-02-17T03:21:34;100702.16;;;3.87;100.00
32109;BME280;18624;50.042;8.436;2023-02-17T03:24:03;101078.78;;;6.37;100.00
32109;BME280;18624;50.042;8.436;2023-02-17T03:26:31;100880.28;;;5.09;100.00
32109;BME280;18624;50.042;8.436;2023-02-17T03:28:58;101048.34;;;6.10;100.00
32109;BME280;18624;50.042;8.436;2023-02-17T03:31:25;101066.28;;;6.18;100.00
32109;BME280;18624;50.042;8.436;2023-02-17T03:33:55;101077.16;;;6.25;100.00
32109;BME280;18624;50.042;8.436;2023-02-17T03:36:21;100720.84;;;3.99;100.00
32109;BME280;18624;50.042;8.436;2023-02-17T03:38:47;101086.59;;;6.42;100.00
32109;BME280;18624;50.042;8.436;2023-02-17T03:41:14;100980.84;;;5.71;100.00
32109;BME280;18624;50.042;8.436;2023-02-17T03:43:40;101060.09;;;6.28;100.00
32109;BME280;18624;50.042;8.436;2023-02-17T03:46:11;101079.19;;;6.39;100.00
32109;BME280;18624;50.042;8.436;2023-02-17T03:48:38;101085.78;;;6.38;100.00
32109;BME280;18624;50.042;8.436;2023-02-17T03:51:16;100964.47;;;5.61;100.00
32109;BME280;18624;50.042;8.436;2023-02-17T03:53:44;101083.50;;;6.40;100.00
32109;BME280;18624;50.042;8.436;2023-02-17T03:56:12;101027.31;;;6.03;100.00
32109;BME280;18624;50.042;8.436;2023-02-17T03:58:39;100859.22;;;4.92;100.00
32109;BME280;18624;50.042;8.436;2023-02-17T04:01:07;100893.09;;;5.12;100.00
32109;BME280;18624;50.042;8.436;2023-02-17T04:03:34;101042.84;;;6.03;100.00
32109;BME280;18624;50.042;8.436;2023-02-17T04:06:01;101000.31;;;5.77;100.00
32109;BME280;18624;50.042;8.436;2023-02-17T04:08:29;101080.72;;;6.33;100.00
32109;BME280;18624;50.042;8.436;2023-02-17T04:10:58;100849.44;;;4.80;100.00
32109;BME280;18624;50.042;8.436;2023-02-17T04:13:26;101031.53;;;5.97;100.00
32109;BME280;18624;50.042;8.436;2023-02-17T04:15:52;100939.06;;;5.31;100.00
32109;BME280;18624;50.042;8.436;2023-02-17T04:18:19;101081.06;;;6.24;100.00
32109;BME280;18624;50.042;8.436;2023-02-17T04:20:48;100867.81;;;5.01;100.00
32109;BME280;18624;50.042;8.436;2023-02-17T04:23:16;101074.13;;;6.38;100.00
32109;BME280;18624;50.042;8.436;2023-02-17T04:25:43;100817.91;;;4.65;100.00
32109;BME280;18624;50.042;8.436;2023-02-17T04:28:10;101049.19;;;6.25;100.00
32109;BME280;18624;50.042;8.436;2023-02-17T04:30:37;101012.94;;;6.06;100.00
32109;BME280;18624;50.042;8.436;2023-02-17T04:33:04;100947.03;;;5.69;100.00
32109;BME280;18624;50.042;8.436;2023-02-17T04:35:31;101046.88;;;6.27;100.00
32109;BME280;18624;50.042;8.436;2023-02-17T04:37:57;100971.22;;;5.88;100.00
32109;BME280;18624;50.042;8.436;2023-02-17T04:40:24;100936.19;;;5.79;100.00
32109;BME280;18624;50.042;8.436;2023-02-17T04:42:50;100740.19;;;4.42;100.00
32109;BME280;18624;50.042;8.436;2023-02-17T04:45:17;100850.03;;;5.11;100.00
32109;BME280;18624;50.042;8.436;2023-02-17T04:47:43;101054.78;;;6.68;100.00
32109;BME280;18624;50.042;8.436;2023-02-17T04:50:10;100806.50;;;5.00;100.00
32109;BME280;18624;50.042;8.436;2023-02-17T04:52:36;100831.81;;;5.15;100.00
32109;BME280;18624;50.042;8.436;2023-02-17T04:55:04;101077.00;;;6.84;100.00
32109;BME280;18624;50.042;8.436;2023-02-17T04:57:30;100765.53;;;4.68;100.00
32109;BME280;18624;50.042;8.436;2023-02-17T04:59:57;100978.38;;;6.21;100.00
32109;BME280;18624;50.042;8.436;2023-02-17T05:02:23;100969.88;;;6.26;100.00
32109;BME280;18624;50.042;8.436;2023-02-17T05:04:52;101070.03;;;7.04;100.00
32109;BME280;18624;50.042;8.436;2023-02-17T05:07:19;100845.16;;;5.52;100.00
32109;BME280;18624;50.042;8.436;2023-02-17T05:09:45;100765.00;;;5.06;100.00
32109;BME280;18624;50.042;8.436;2023-02-17T05:12:12;100787.09;;;5.08;100.00
32109;BME280;18624;50.042;8.436;2023-02-17T05:14:38;101023.66;;;6.69;100.00
32109;BME280;18624;50.042;8.436;2023-02-17T05:17:05;101060.69;;;7.09;100.00
32109;BME280;18624;50.042;8.436;2023-02-17T05:19:31;100869.34;;;5.68;100.00
32109;BME280;18624;50.042;8.436;2023-02-17T05:21:58;100805.13;;;5.38;100.00
32109;BME280;18624;50.042;8.436;2023-02-17T05:24:24;100800.81;;;5.30;100.00
32109;BME280;18624;50.042;8.436;2023-02-17T05:26:51;100911.84;;;6.04;100.00
32109;BME280;18624;50.042;8.436;2023-02-17T05:29:17;100992.47;;;6.52;100.00
32109;BME280;18624;50.042;8.436;2023-02-17T05:31:43;101035.38;;;6.80;100.00
32109;BME280;18624;50.042;8.436;2023-02-17T05:34:11;100983.91;;;6.50;100.00
32109;BME280;18624;50.042;8.436;2023-02-17T05:36:38;100994.41;;;6.51;100.00
32109;BME280;18624;50.042;8.436;2023-02-17T05:39:05;100934.03;;;6.10;100.00
32109;BME280;18624;50.042;8.436;2023-02-17T05:41:31;100991.34;;;6.64;100.00
32109;BME280;18624;50.042;8.436;2023-02-17T05:43:58;100967.94;;;6.48;100.00
32109;BME280;18624;50.042;8.436;2023-02-17T05:46:24;100838.22;;;5.65;100.00
32109;BME280;18624;50.042;8.436;2023-02-17T05:48:51;101040.06;;;7.04;100.00
32109;BME280;18624;50.042;8.436;2023-02-17T05:51:17;101083.31;;;7.38;100.00
32109;BME280;18624;50.042;8.436;2023-02-17T05:53:44;101049.41;;;7.03;100.00
32109;BME280;18624;50.042;8.436;2023-02-17T05:56:10;101091.13;;;7.40;100.00
32109;BME280;18624;50.042;8.436;2023-02-17T05:58:37;101090.34;;;7.39;100.00
32109;BME280;18624;50.042;8.436;2023-02-17T06:01:10;100789.63;;;5.53;100.00
32109;BME280;18624;50.042;8.436;2023-02-17T06:03:37;101081.00;;;7.44;100.00
32109;BME280;18624;50.042;8.436;2023-02-17T06:06:04;101083.31;;;7.45;100.00
32109;BME280;18624;50.042;8.436;2023-02-17T06:08:32;101073.97;;;7.35;100.00
32109;BME280;18624;50.042;8.436;2023-02-17T06:10:58;100746.41;;;5.26;100.00
32109;BME280;18624;50.042;8.436;2023-02-17T06:13:25;100891.31;;;6.36;100.00
32109;BME280;18624;50.042;8.436;2023-02-17T06:15:51;100942.69;;;6.58;100.00
32109;BME280;18624;50.042;8.436;2023-02-17T06:18:18;101071.63;;;7.55;100.00
32109;BME280;18624;50.042;8.436;2023-02-17T06:20:44;101071.63;;;7.48;100.00
32109;BME280;18624;50.042;8.436;2023-02-17T06:23:11;100979.72;;;6.99;100.00
32109;BME280;18624;50.042;8.436;2023-02-17T06:25:37;101063.47;;;7.48;100.00
32109;BME280;18624;50.042;8.436;2023-02-17T06:28:04;101024.09;;;7.24;100.00
32109;BME280;18624;50.042;8.436;2023-02-17T06:30:30;101076.69;;;7.53;100.00
32109;BME280;18624;50.042;8.436;2023-02-17T06:32:57;101030.34;;;7.35;100.00
32109;BME280;18624;50.042;8.436;2023-02-17T06:35:25;101066.94;;;7.63;100.00
32109;BME280;18624;50.042;8.436;2023-02-17T06:37:51;100988.66;;;7.06;100.00
32109;BME280;18624;50.042;8.436;2023-02-17T06:40:18;101075.91;;;7.71;100.00
32109;BME280;18624;50.042;8.436;2023-02-17T06:42:45;101069.66;;;7.59;100.00
32109;BME280;18624;50.042;8.436;2023-02-17T06:45:11;101006.56;;;7.15;100.00
32109;BME280;18624;50.042;8.436;2023-02-17T06:47:37;100996.06;;;7.13;100.00
32109;BME280;18624;50.042;8.436;2023-02-17T06:50:04;100989.44;;;6.96;100.00
32109;BME280;18624;50.042;8.436;2023-02-17T06:52:31;100853.16;;;6.11;100.00
32109;BME280;18624;50.042;8.436;2023-02-17T06:54:58;100957.09;;;6.84;100.00
32109;BME280;18624;50.042;8.436;2023-02-17T06:57:24;101001.50;;;7.20;100.00
32109;BME280;18624;50.042;8.436;2023-02-17T06:59:51;101099.28;;;7.68;100.00
32109;BME280;18624;50.042;8.436;2023-02-17T07:02:17;100935.69;;;6.61;100.00
32109;BME280;18624;50.042;8.436;2023-02-17T07:04:44;100941.91;;;6.62;100.00
32109;BME280;18624;50.042;8.436;2023-02-17T07:07:10;101001.09;;;6.97;100.00
32109;BME280;18624;50.042;8.436;2023-02-17T07:09:37;101005.41;;;7.08;100.00
32109;BME280;18624;50.042;8.436;2023-02-17T07:12:04;100989.44;;;6.96;100.00
32109;BME280;18624;50.042;8.436;2023-02-17T07:14:33;101117.97;;;7.87;100.00
32109;BME280;18624;50.042;8.436;2023-02-17T07:16:59;101086.81;;;7.64;100.00
32109;BME280;18624;50.042;8.436;2023-02-17T07:19:26;101021.75;;;7.16;100.00
32109;BME280;18624;50.042;8.436;2023-02-17T07:21:53;101017.09;;;7.13;100.00
32109;BME280;18624;50.042;8.436;2023-02-17T07:24:19;101112.94;;;7.75;100.00
32109;BME280;18624;50.042;8.436;2023-02-17T07:26:45;101031.88;;;7.36;100.00
32109;BME280;18624;50.042;8.436;2023-02-17T07:29:12;100991.41;;;7.21;100.00
32109;BME280;18624;50.042;8.436;2023-02-17T07:31:38;101097.31;;;7.90;100.00
32109;BME280;18624;50.042;8.436;2023-02-17T07:34:05;101010.06;;;7.29;100.00
32109;BME280;18624;50.042;8.436;2023-02-17T07:36:31;101081.34;;;7.78;100.00
32109;BME280;18624;50.042;8.436;2023-02-17T07:38:58;101041.63;;;7.38;100.00
32109;BME280;18624;50.042;8.436;2023-02-17T07:41:25;101046.72;;;7.39;100.00
32109;BME280;18624;50.042;8.436;2023-02-17T07:43:55;100923.22;;;6.60;100.00
32109;BME280;18624;50.042;8.436;2023-02-17T07:46:22;100934.16;;;6.78;100.00
32109;BME280;18624;50.042;8.436;2023-02-17T07:48:49;100890.53;;;6.56;100.00
32109;BME280;18624;50.042;8.436;2023-02-17T07:51:19;101063.81;;;7.72;100.00
32109;BME280;18624;50.042;8.436;2023-02-17T07:53:47;101100.84;;;7.98;100.00
32109;BME280;18624;50.042;8.436;2023-02-17T07:56:15;101022.16;;;7.53;100.00
32109;BME280;18624;50.042;8.436;2023-02-17T07:58:43;101073.56;;;7.80;100.00
32109;BME280;18624;50.042;8.436;2023-02-17T08:01:23;100901.06;;;6.72;100.00
32109;BME280;18624;50.042;8.436;2023-02-17T08:03:54;101117.19;;;8.08;100.00
32109;BME280;18624;50.042;8.436;2023-02-17T08:06:24;101044.69;;;7.82;100.00
32109;BME280;18624;50.042;8.436;2023-02-17T08:08:51;101084.81;;;8.03;100.00
32109;BME280;18624;50.042;8.436;2023-02-17T08:11:38;101059.50;;;7.89;100.00
32109;BME280;18624;50.042;8.436;2023-02-17T08:14:25;101088.28;;;8.18;100.00
32109;BME280;18624;50.042;8.436;2023-02-17T08:16:52;101087.09;;;8.19;100.00
32109;BME280;18624;50.042;8.436;2023-02-17T08:19:19;101075.44;;;8.11;100.00
32109;BME280;18624;50.042;8.436;2023-02-17T08:21:46;101011.19;;;7.75;100.00
32109;BME280;18624;50.042;8.436;2023-02-17T08:24:13;100809.22;;;6.33;100.00
32109;BME280;18624;50.042;8.436;2023-02-17T08:26:41;101118.31;;;8.22;100.00
32109;BME280;18624;50.042;8.436;2023-02-17T08:29:07;101055.94;;;8.06;100.00
32109;BME280;18624;50.042;8.436;2023-02-17T08:31:35;101096.81;;;8.45;100.00
32109;BME280;18624;50.042;8.436;2023-02-17T08:34:04;101098.75;;;8.52;100.00
32109;BME280;18624;50.042;8.436;2023-02-17T08:36:31;101089.31;;;8.60;100.00
32109;BME280;18624;50.042;8.436;2023-02-17T08:38:59;101034.38;;;8.33;100.00
32109;BME280;18624;50.042;8.436;2023-02-17T08:41:29;101088.94;;;8.65;100.00
32109;BME280;18624;50.042;8.436;2023-02-17T08:43:58;101090.47;;;8.70;100.00
32109;BME280;18624;50.042;8.436;2023-02-17T08:46:28;101101.31;;;8.87;100.00
32109;BME280;18624;50.042;8.436;2023-02-17T08:48:55;101111.84;;;8.93;100.00
32109;BME280;18624;50.042;8.436;2023-02-17T08:51:23;101094.31;;;8.83;100.00
32109;BME280;18624;50.042;8.436;2023-02-17T08:53:55;101111.81;;;8.96;100.00
32109;BME280;18624;50.042;8.436;2023-02-17T08:56:23;101114.94;;;8.91;100.00
32109;BME280;18624;50.042;8.436;2023-02-17T08:58:50;101091.19;;;8.77;100.00
32109;BME280;18624;50.042;8.436;2023-02-17T09:01:17;101003.63;;;8.22;100.00
32109;BME280;18624;50.042;8.436;2023-02-17T09:03:47;101110.66;;;8.94;100.00
32109;BME280;18624;50.042;8.436;2023-02-17T09:06:14;101063.59;;;8.54;100.00
32109;BME280;18624;50.042;8.436;2023-02-17T09:08:41;101076.72;;;8.84;100.00
32109;BME280;18624;50.042;8.436;2023-02-17T09:11:08;100826.28;;;7.05;100.00
32109;BME280;18624;50.042;8.436;2023-02-17T09:13:35;101090.72;;;8.93;100.00
32109;BME280;18624;50.042;8.436;2023-02-17T09:16:02;100994.22;;;8.33;100.00
32109;BME280;18624;50.042;8.436;2023-02-17T09:18:29;101099.69;;;9.01;100.00
32109;BME280;18624;50.042;8.436;2023-02-17T09:20:55;101068.56;;;8.73;100.00
32109;BME280;18624;50.042;8.436;2023-02-17T09:23:23;101070.53;;;8.73;100.00
32109;BME280;18624;50.042;8.436;2023-02-17T09:26:00;101107.09;;;9.00;100.00
32109;BME280;18624;50.042;8.436;2023-02-17T09:28:26;101109.81;;;9.00;100.00
32109;BME280;18624;50.042;8.436;2023-02-17T09:30:53;101051.44;;;8.66;100.00
32109;BME280;18624;50.042;8.436;2023-02-17T09:33:19;100990.75;;;8.22;100.00
32109;BME280;18624;50.042;8.436;2023-02-17T09:35:46;101097.38;;;8.92;100.00
32109;BME280;18624;50.042;8.436;2023-02-17T09:38:15;101014.53;;;8.25;100.00
32109;BME280;18624;50.042;8.436;2023-02-17T09:40:47;100998.16;;;8.22;100.00
32109;BME280;18624;50.042;8.436;2023-02-17T09:43:18;100988.00;;;8.26;100.00
32109;BME280;18624;50.042;8.436;2023-02-17T09:45:59;101053.75;;;8.74;100.00
32109;BME280;18624;50.042;8.436;2023-02-17T09:48:29;101023.38;;;8.61;100.00
32109;BME280;18624;50.042;8.436;2023-02-17T09:51:00;101062.63;;;8.93;100.00
32109;BME280;18624;50.042;8.436;2023-02-17T09:53:36;101112.72;;;9.34;100.00
32109;BME280;18624;50.042;8.436;2023-02-17T09:56:09;101108.47;;;9.30;100.00
32109;BME280;18624;50.042;8.436;2023-02-17T09:58:42;101052.34;;;9.07;100.00
32109;BME280;18624;50.042;8.436;2023-02-17T10:01:20;101120.34;;;9.61;100.00
32109;BME280;18624;50.042;8.436;2023-02-17T10:03:58;101085.28;;;9.45;100.00
32109;BME280;18624;50.042;8.436;2023-02-17T10:06:37;100983.06;;;8.76;100.00
32109;BME280;18624;50.042;8.436;2023-02-17T10:09:30;101015.28;;;8.99;100.00
32109;BME280;18624;50.042;8.436;2023-02-17T10:12:10;101079.09;;;9.37;100.00
32109;BME280;18624;50.042;8.436;2023-02-17T10:14:47;101099.78;;;9.42;100.00
32109;BME280;18624;50.042;8.436;2023-02-17T10:17:43;101134.31;;;9.74;100.00
32109;BME280;18624;50.042;8.436;2023-02-17T10:20:31;101115.69;;;9.54;100.00
32109;BME280;18624;50.042;8.436;2023-02-17T10:23:03;101135.84;;;9.78;100.00
32109;BME280;18624;50.042;8.436;2023-02-17T10:28:49;101117.88;;;9.77;100.00
32109;BME280;18624;50.042;8.436;2023-02-17T10:31:34;101075.09;;;9.49;100.00
32109;BME280;18624;50.042;8.436;2023-02-17T10:34:11;101140.34;;;9.99;100.00
32109;BME280;18624;50.042;8.436;2023-02-17T10:36:52;101134.84;;;10.03;100.00
32109;BME280;18624;50.042;8.436;2023-02-17T10:41:55;101100.25;;;9.78;100.00
32109;BME280;18624;50.042;8.436;2023-02-17T10:44:23;100924.91;;;8.72;100.00
32109;BME280;18624;50.042;8.436;2023-02-17T10:46:51;100866.63;;;8.34;100.00
32109;BME280;18624;50.042;8.436;2023-02-17T10:49:36;100976.66;;;8.97;100.00
32109;BME280;18624;50.042;8.436;2023-02-17T10:52:14;101077.94;;;9.80;100.00
32109;BME280;18624;50.042;8.436;2023-02-17T10:54:47;101124.16;;;10.15;100.00
32109;BME280;18624;50.042;8.436;2023-02-17T10:57:16;101113.31;;;10.05;100.00
32109;BME280;18624;50.042;8.436;2023-02-17T10:59:46;101080.66;;;9.83;100.00
32109;BME280;18624;50.042;8.436;2023-02-17T11:02:19;101123.63;;;10.31;100.00
32109;BME280;18624;50.042;8.436;2023-02-17T11:04:51;101123.91;;;10.41;100.00
32109;BME280;18624;50.042;8.436;2023-02-17T11:07:30;101024.28;;;9.86;100.00
32109;BME280;18624;50.042;8.436;2023-02-17T11:10:00;101041.72;;;10.03;100.00
32109;BME280;18624;50.042;8.436;2023-02-17T11:12:39;101085.88;;;10.46;100.00
32109;BME280;18624;50.042;8.436;2023-02-17T11:15:28;101115.66;;;10.75;100.00
32109;BME280;18624;50.042;8.436;2023-02-17T11:17:55;100944.44;;;9.57;100.00
32109;BME280;18624;50.042;8.436;2023-02-17T11:23:04;101028.31;;;10.46;100.00
32109;BME280;18624;50.042;8.436;2023-02-17T11:25:33;101005.56;;;10.49;100.00
32109;BME280;18624;50.042;8.436;2023-02-17T11:28:09;100656.78;;;8.25;100.00
32109;BME280;18624;50.042;8.436;2023-02-17T11:30:38;100914.16;;;10.05;100.00
32109;BME280;18624;50.042;8.436;2023-02-17T11:33:19;101086.66;;;11.31;100.00
32109;BME280;18624;50.042;8.436;2023-02-17T11:35:50;101079.47;;;11.37;100.00
32109;BME280;18624;50.042;8.436;2023-02-17T11:38:21;101021.66;;;11.01;100.00
32109;BME280;18624;50.042;8.436;2023-02-17T11:43:18;101054.50;;;11.32;100.00
32109;BME280;18624;50.042;8.436;2023-02-17T11:45:59;100928.84;;;10.49;100.00
32109;BME280;18624;50.042;8.436;2023-02-17T11:51:15;101060.88;;;11.49;100.00
32109;BME280;18624;50.042;8.436;2023-02-17T11:56:24;100945.50;;;10.85;100.00
32109;BME280;18624;50.042;8.436;2023-02-17T12:01:49;101074.13;;;11.77;100.00
32109;BME280;18624;50.042;8.436;2023-02-17T12:04:24;101069.06;;;11.76;100.00
32109;BME280;18624;50.042;8.436;2023-02-17T12:09:32;100794.25;;;9.89;100.00
32109;BME280;18624;50.042;8.436;2023-02-17T12:12:15;101034.50;;;11.55;100.00
32109;BME280;18624;50.042;8.436;2023-02-17T12:14:54;101077.94;;;11.83;100.00
32109;BME280;18624;50.042;8.436;2023-02-17T12:17:41;101069.81;;;11.76;100.00
32109;BME280;18624;50.042;8.436;2023-02-17T12:23:51;100994.22;;;11.25;100.00
32109;BME280;18624;50.042;8.436;2023-02-17T12:26:36;101054.16;;;11.73;100.00
32109;BME280;18624;50.042;8.436;2023-02-17T12:29:32;101076.78;;;11.84;100.00
32109;BME280;18624;50.042;8.436;2023-02-17T12:32:03;101062.59;;;11.86;100.00
32109;BME280;18624;50.042;8.436;2023-02-17T12:34:41;101054.16;;;11.73;100.00
32109;BME280;18624;50.042;8.436;2023-02-17T12:37:26;101041.03;;;11.61;100.00
32109;BME280;18624;50.042;8.436;2023-02-17T12:40:03;101013.06;;;11.46;100.00
32109;BME280;18624;50.042;8.436;2023-02-17T12:42:47;101041.16;;;11.77;100.00
32109;BME280;18624;50.042;8.436;2023-02-17T12:45:36;101008.53;;;11.59;100.00
32109;BME280;18624;50.042;8.436;2023-02-17T12:48:15;101034.78;;;11.84;100.00
32109;BME280;18624;50.042;8.436;2023-02-17T12:50:53;101024.59;;;11.84;100.00
32109;BME280;18624;50.042;8.436;2023-02-17T12:53:33;101024.59;;;11.84;100.00
32109;BME280;18624;50.042;8.436;2023-02-17T12:56:18;100836.66;;;10.59;100.00
32109;BME280;18624;50.042;8.436;2023-02-17T12:58:47;101038.41;;;11.77;100.00
32109;BME280;18624;50.042;8.436;2023-02-17T13:01:15;100820.50;;;10.41;100.00
32109;BME280;18624;50.042;8.436;2023-02-17T13:03:45;100775.28;;;10.02;100.00
32109;BME280;18624;50.042;8.436;2023-02-17T13:06:26;101048.13;;;11.82;100.00
32109;BME280;18624;50.042;8.436;2023-02-17T13:09:02;100995.47;;;11.44;100.00
32109;BME280;18624;50.042;8.436;2023-02-17T13:11:34;100956.44;;;11.12;100.00
32109;BME280;18624;50.042;8.436;2023-02-17T13:14:49;101045.88;;;11.77;100.00
32109;BME280;18624;50.042;8.436;2023-02-17T13:22:40;100929.81;;;11.09;100.00
32109;BME280;18624;50.042;8.436;2023-02-17T13:25:13;101038.75;;;11.79;100.00
32109;BME280;18624;50.042;8.436;2023-02-17T13:27:50;100990.47;;;11.38;100.00
32109;BME280;18624;50.042;8.436;2023-02-17T13:32:43;101031.38;;;11.76;100.00
32109;BME280;18624;50.042;8.436;2023-02-17T13:37:43;100983.38;;;11.41;100.00
32109;BME280;18624;50.042;8.436;2023-02-17T13:42:47;100998.47;;;11.53;100.00
32109;BME280;18624;50.042;8.436;2023-02-17T13:45:27;101028.69;;;11.73;100.00
32109;BME280;18624;50.042;8.436;2023-02-17T13:47:56;100971.31;;;11.35;100.00
32109;BME280;18624;50.042;8.436;2023-02-17T13:50:28;101018.19;;;11.68;100.00
32109;BME280;18624;50.042;8.436;2023-02-17T13:52:55;101018.13;;;11.71;100.00
32109;BME280;18624;50.042;8.436;2023-02-17T13:55:22;101024.78;;;11.70;100.00
32109;BME280;18624;50.042;8.436;2023-02-17T13:57:54;101011.50;;;11.69;100.00
32109;BME280;18624;50.042;8.436;2023-02-17T14:02:51;100847.47;;;10.43;100.00